EZY79XU EGKK-LFBO

Flight info

Callsign EZY79XU
Flight time N/A
Altitude 35000
Route SFD Y47 BENBO UY47 DRAKE L151 SITET UN859 SOPIL DCT BALAN DCT EVPOK DCT NARAK
Aircraft A320/M-SDE3FGHIRWY/LB1

Departure

Time 2026-05-04 09:22
Airport London Gatwick Airport (EGKK)

Arrival

Time N/A
Airport Toulouse-Blagnac Airport (LFBO)
Time Latitude Longitude Altitude Speed Heading
2026-05-04 09:01 51.15584 -0.17683 205 ft 0 kts 348°
2026-05-04 09:10 51.15577 -0.17681 206 ft 2 kts 349°
2026-05-04 09:10 51.15556 -0.17674 218 ft 2 kts 349°
2026-05-04 09:11 51.15546 -0.17671 211 ft 2 kts 349°
2026-05-04 09:11 51.15530 -0.17665 218 ft 2 kts 332°
2026-05-04 09:11 51.15518 -0.17648 215 ft 2 kts 273°
2026-05-04 09:11 51.15518 -0.17641 215 ft 0 kts 257°
2026-05-04 09:14 51.15486 -0.17885 209 ft 7 kts 257°
2026-05-04 09:14 51.15470 -0.18001 211 ft 16 kts 257°
2026-05-04 09:14 51.15444 -0.18187 212 ft 16 kts 257°
2026-05-04 09:14 51.15390 -0.18280 208 ft 12 kts 169°
2026-05-04 09:15 51.15316 -0.18251 215 ft 10 kts 168°
2026-05-04 09:15 51.15241 -0.18226 211 ft 12 kts 169°
2026-05-04 09:15 51.15186 -0.18281 208 ft 10 kts 251°
2026-05-04 09:15 51.15176 -0.18401 210 ft 17 kts 260°
2026-05-04 09:17 51.14868 -0.19981 211 ft 28 kts 257°
2026-05-04 09:18 51.14824 -0.20292 213 ft 30 kts 257°
2026-05-04 09:18 51.14780 -0.20607 209 ft 28 kts 257°
2026-05-04 09:18 51.14738 -0.20916 214 ft 27 kts 257°
2026-05-04 09:18 51.14701 -0.21184 207 ft 24 kts 257°
2026-05-04 09:19 51.14674 -0.21318 208 ft 10 kts 230°
2026-05-04 09:19 51.14614 -0.21328 206 ft 0 kts 164°
2026-05-04 09:20 51.14552 -0.21289 214 ft 16 kts 145°
2026-05-04 09:20 51.14520 -0.21157 206 ft 0 kts 78°
2026-05-04 09:21 51.14552 -0.20924 207 ft 57 kts 78°
2026-05-04 09:21 51.14686 -0.19967 216 ft 119 kts 77°
2026-05-04 09:22 51.14896 -0.18431 264 ft 162 kts 75°
2026-05-04 09:22 51.15159 -0.16606 672 ft 175 kts 76°
2026-05-04 09:22 51.15445 -0.14544 985 ft 200 kts 78°
2026-05-04 09:22 51.15749 -0.12314 1538 ft 213 kts 77°
2026-05-04 09:23 51.16073 -0.09928 2102 ft 219 kts 77°
2026-05-04 09:23 51.16105 -0.07501 2621 ft 225 kts 108°
2026-05-04 09:23 51.15154 -0.05527 3154 ft 237 kts 148°
2026-05-04 09:23 51.13568 -0.04526 3673 ft 256 kts 164°
2026-05-04 09:25 51.01010 0.00430 7217 ft 273 kts 164°
2026-05-04 09:25 50.99190 0.01302 7719 ft 274 kts 164°
2026-05-04 09:26 50.97361 0.02176 8230 ft 276 kts 165°
2026-05-04 09:26 50.95488 0.03068 8756 ft 278 kts 165°
2026-05-04 09:26 50.93625 0.03953 9283 ft 281 kts 165°
2026-05-04 09:26 50.91769 0.04831 9798 ft 283 kts 165°
2026-05-04 09:27 50.89875 0.05722 10306 ft 285 kts 165°
2026-05-04 09:27 50.87969 0.06618 10793 ft 287 kts 165°
2026-05-04 09:27 50.86052 0.07521 11288 ft 288 kts 165°
2026-05-04 09:27 50.84123 0.08424 11799 ft 290 kts 165°
2026-05-04 09:28 50.82174 0.09331 12312 ft 292 kts 165°
2026-05-04 09:28 50.80216 0.10243 12836 ft 294 kts 165°
2026-05-04 09:28 50.78245 0.11160 13315 ft 297 kts 165°
2026-05-04 09:28 50.76215 0.11712 13774 ft 297 kts 179°
2026-05-04 09:29 50.74130 0.11474 14192 ft 307 kts 192°
2026-05-04 09:29 50.72003 0.10702 14607 ft 319 kts 193°
2026-05-04 09:29 50.69804 0.09898 15028 ft 330 kts 193°
2026-05-04 09:29 50.67523 0.09073 15454 ft 341 kts 193°
2026-05-04 09:30 50.65176 0.08230 15890 ft 351 kts 193°
2026-05-04 09:30 50.62764 0.07363 16326 ft 360 kts 193°
2026-05-04 09:30 50.60292 0.06470 16770 ft 368 kts 193°
2026-05-04 09:30 50.57787 0.05565 17221 ft 372 kts 193°
2026-05-04 09:31 50.55255 0.04649 17676 ft 374 kts 193°
2026-05-04 09:31 50.52738 0.03745 18133 ft 377 kts 193°
2026-05-04 09:31 50.50166 0.02822 18560 ft 379 kts 193°
2026-05-04 09:31 50.47592 0.01900 18966 ft 381 kts 193°
2026-05-04 09:32 50.45000 0.00972 19378 ft 382 kts 193°
2026-05-04 09:32 50.42404 0.00045 19797 ft 384 kts 193°
2026-05-04 09:34 50.23921 -0.06365 22938 ft 396 kts 186°
2026-05-04 09:34 50.21153 -0.06384 23414 ft 400 kts 176°
2026-05-04 09:34 50.18406 -0.05595 23842 ft 404 kts 166°
2026-05-04 09:34 50.15775 -0.04028 24244 ft 406 kts 158°
2026-05-04 09:35 50.13200 -0.02215 24646 ft 406 kts 159°
2026-05-04 09:35 50.10607 -0.00441 25047 ft 406 kts 162°
2026-05-04 09:35 50.07911 0.00840 25455 ft 403 kts 168°
2026-05-04 09:35 50.05186 0.01902 25879 ft 404 kts 168°
2026-05-04 09:37 49.86203 0.09362 29026 ft 399 kts 168°
2026-05-04 09:37 49.83545 0.10396 29504 ft 398 kts 168°
2026-05-04 09:38 49.80868 0.11441 29992 ft 396 kts 168°
2026-05-04 09:38 49.78200 0.12486 30421 ft 394 kts 168°
2026-05-04 09:38 49.75550 0.13521 30843 ft 393 kts 168°
2026-05-04 09:38 49.72905 0.14552 31268 ft 391 kts 168°
2026-05-04 09:39 49.70277 0.15576 31706 ft 389 kts 168°
2026-05-04 09:39 49.67661 0.16592 32153 ft 387 kts 168°
2026-05-04 09:39 49.65056 0.17623 32608 ft 385 kts 168°
2026-05-04 09:39 49.62469 0.18671 33062 ft 383 kts 167°
2026-05-04 09:40 49.59901 0.19722 33531 ft 380 kts 167°
2026-05-04 09:40 49.57354 0.20760 34001 ft 377 kts 167°
2026-05-04 09:40 49.54826 0.21785 34403 ft 373 kts 167°
2026-05-04 09:40 49.52326 0.22794 34795 ft 369 kts 167°
2026-05-04 09:41 49.49834 0.23796 34986 ft 372 kts 168°
2026-05-04 09:42 49.31178 0.31217 35005 ft 419 kts 167°
2026-05-04 09:43 49.25513 0.33555 35006 ft 423 kts 166°
2026-05-04 09:43 49.19830 0.36001 34992 ft 424 kts 166°
2026-05-04 09:44 49.14145 0.38414 34989 ft 424 kts 167°
2026-05-04 09:46 48.91442 0.47883 34977 ft 421 kts 167°
2026-05-04 09:46 48.85789 0.50232 34980 ft 421 kts 167°
2026-05-04 09:47 48.80139 0.52570 34975 ft 420 kts 167°
2026-05-04 09:49 48.57511 0.61456 34964 ft 420 kts 167°
2026-05-04 09:51 48.38697 0.69018 34957 ft 420 kts 167°
2026-05-04 09:51 48.33082 0.71311 34955 ft 420 kts 167°
2026-05-04 09:52 48.27442 0.73590 34957 ft 420 kts 167°
2026-05-04 09:52 48.21792 0.75855 34950 ft 420 kts 167°
2026-05-04 09:53 48.16140 0.78070 34950 ft 419 kts 168°
2026-05-04 09:53 48.10490 0.80267 34949 ft 419 kts 168°
2026-05-04 09:54 48.04853 0.82479 34950 ft 419 kts 167°
2026-05-04 09:54 47.99210 0.84690 34950 ft 419 kts 168°
2026-05-04 09:55 47.93612 0.86875 34944 ft 418 kts 167°
2026-05-04 09:55 47.87994 0.89060 34951 ft 417 kts 167°
2026-05-04 09:56 47.82380 0.91240 34952 ft 417 kts 167°
2026-05-04 09:56 47.76761 0.93422 34949 ft 417 kts 168°
2026-05-04 09:57 47.71154 0.95593 34951 ft 416 kts 168°
2026-05-04 09:57 47.65542 0.97754 34952 ft 417 kts 168°
2026-05-04 09:58 47.59926 0.99904 34956 ft 416 kts 168°
2026-05-04 09:58 47.54314 1.02060 34954 ft 417 kts 168°
2026-05-04 10:00 47.34475 1.06239 34954 ft 412 kts 182°
2026-05-04 10:00 47.31573 1.06168 34956 ft 411 kts 182°
2026-05-04 10:04 46.91607 1.05057 34954 ft 410 kts 183°
2026-05-04 10:04 46.85942 1.04781 34954 ft 410 kts 183°
2026-05-04 10:05 46.80244 1.04531 34948 ft 410 kts 183°
2026-05-04 10:05 46.74537 1.04297 34947 ft 410 kts 183°
2026-05-04 10:06 46.68828 1.04062 34954 ft 410 kts 183°
2026-05-04 10:06 46.63133 1.03829 34954 ft 410 kts 183°
2026-05-04 10:08 46.46090 1.05171 34944 ft 414 kts 169°
2026-05-04 10:08 46.43284 1.06115 34944 ft 414 kts 169°
2026-05-04 10:08 46.37670 1.07991 34952 ft 414 kts 169°
2026-05-04 10:09 46.32044 1.09864 34942 ft 415 kts 170°
2026-05-04 10:09 46.26453 1.11726 34946 ft 415 kts 170°
2026-05-04 10:10 46.20816 1.13596 34947 ft 415 kts 170°
2026-05-04 10:10 46.15181 1.15468 34945 ft 416 kts 170°
2026-05-04 10:11 46.09542 1.17343 34948 ft 416 kts 170°
2026-05-04 10:11 46.03896 1.19198 34931 ft 416 kts 170°
2026-05-04 10:12 45.98246 1.21045 34952 ft 415 kts 170°
2026-05-04 10:12 45.92623 1.22894 34954 ft 415 kts 170°
2026-05-04 10:13 45.87001 1.24755 34957 ft 415 kts 170°
2026-05-04 10:13 45.81373 1.26598 34961 ft 414 kts 170°
2026-05-04 10:14 45.75751 1.28424 34956 ft 414 kts 171°
2026-05-04 10:16 45.53242 1.35743 34948 ft 415 kts 171°
2026-05-04 10:16 45.47600 1.37559 34951 ft 415 kts 171°
2026-05-04 10:17 45.41965 1.39374 34949 ft 415 kts 171°
2026-05-04 10:19 45.19382 1.46620 34964 ft 417 kts 171°
2026-05-04 10:19 45.16550 1.47528 34808 ft 419 kts 171°
2026-05-04 10:19 45.13707 1.48436 34441 ft 419 kts 171°
2026-05-04 10:20 45.10855 1.49347 34061 ft 419 kts 171°
2026-05-04 10:20 45.08010 1.50255 33519 ft 419 kts 171°
2026-05-04 10:20 45.05166 1.51161 32975 ft 419 kts 171°
2026-05-04 10:20 45.02305 1.52069 32432 ft 420 kts 171°
2026-05-04 10:21 44.99452 1.52971 31888 ft 421 kts 171°
2026-05-04 10:21 44.96594 1.53871 31364 ft 420 kts 171°
2026-05-04 10:21 44.93737 1.54771 30860 ft 421 kts 171°
2026-05-04 10:21 44.90877 1.55671 30368 ft 422 kts 171°
2026-05-04 10:22 44.85117 1.57495 29280 ft 426 kts 170°
2026-05-04 10:22 44.82223 1.58410 28723 ft 427 kts 170°
2026-05-04 10:22 44.79318 1.59326 28183 ft 427 kts 170°
2026-05-04 10:23 44.76422 1.60242 27627 ft 425 kts 170°
2026-05-04 10:23 44.73548 1.61154 27105 ft 422 kts 170°
2026-05-04 10:25 44.54006 1.67270 23667 ft 402 kts 171°
2026-05-04 10:25 44.51284 1.68118 23145 ft 399 kts 171°
2026-05-04 10:25 44.48586 1.68961 22602 ft 397 kts 171°
2026-05-04 10:25 44.45897 1.69802 22067 ft 395 kts 171°
2026-05-04 10:26 44.43220 1.70639 21533 ft 393 kts 170°
2026-05-04 10:26 44.40552 1.71474 21011 ft 391 kts 170°
2026-05-04 10:26 44.37903 1.72299 20506 ft 390 kts 170°
2026-05-04 10:26 44.35259 1.73118 20010 ft 388 kts 170°
2026-05-04 10:27 44.32616 1.73772 19517 ft 384 kts 177°
2026-05-04 10:27 44.29969 1.73744 19036 ft 379 kts 188°
2026-05-04 10:27 44.27397 1.73015 18560 ft 376 kts 198°
2026-05-04 10:27 44.24989 1.71626 18064 ft 374 kts 207°
2026-05-04 10:28 44.22684 1.69947 17535 ft 373 kts 207°
2026-05-04 10:28 44.20387 1.68281 17142 ft 371 kts 207°
2026-05-04 10:28 44.18099 1.66631 16773 ft 369 kts 207°
2026-05-04 10:28 44.15821 1.64997 16413 ft 368 kts 207°
2026-05-04 10:29 44.13550 1.63370 16055 ft 366 kts 207°
2026-05-04 10:29 44.11286 1.61746 15702 ft 365 kts 207°
2026-05-04 10:29 44.09039 1.60135 15353 ft 363 kts 207°
2026-05-04 10:29 44.06794 1.58525 15008 ft 362 kts 207°
2026-05-04 10:30 44.04559 1.56926 14670 ft 360 kts 207°
2026-05-04 10:30 44.02335 1.55332 14333 ft 359 kts 207°
2026-05-04 10:30 44.00120 1.53746 13997 ft 358 kts 207°
2026-05-04 10:30 43.97909 1.52163 13661 ft 357 kts 207°
2026-05-04 10:31 43.95705 1.50582 13285 ft 357 kts 207°
2026-05-04 10:31 43.93505 1.49005 12915 ft 355 kts 207°
2026-05-04 10:32 43.80675 1.39978 10781 ft 326 kts 199°
2026-05-04 10:33 43.79183 1.39602 10549 ft 322 kts 181°
2026-05-04 10:33 43.77030 1.40254 10208 ft 319 kts 155°
2026-05-04 10:33 43.75151 1.41840 9875 ft 314 kts 148°
2026-05-04 10:33 43.73340 1.43481 9511 ft 309 kts 148°
2026-05-04 10:34 43.71570 1.45103 9238 ft 301 kts 148°
2026-05-04 10:34 43.69843 1.46683 8976 ft 294 kts 148°
2026-05-04 10:34 43.68158 1.48217 8717 ft 287 kts 148°
2026-05-04 10:34 43.66530 1.49688 8463 ft 280 kts 148°
2026-05-04 10:35 43.64904 1.51153 8208 ft 278 kts 148°
2026-05-04 10:35 43.63292 1.52604 7938 ft 276 kts 148°
2026-05-04 10:35 43.61689 1.54049 7650 ft 274 kts 148°
2026-05-04 10:35 43.60105 1.55493 7377 ft 272 kts 147°
2026-05-04 10:36 43.58570 1.57019 7105 ft 272 kts 145°
2026-05-04 10:36 43.57060 1.58595 6821 ft 270 kts 144°
2026-05-04 10:36 43.55589 1.60159 6564 ft 264 kts 144°
2026-05-04 10:36 43.54143 1.61694 6294 ft 261 kts 144°
2026-05-04 10:37 43.52657 1.63098 6012 ft 257 kts 157°
2026-05-04 10:37 43.50955 1.63591 5730 ft 248 kts 183°
2026-05-04 10:37 43.49319 1.63033 5444 ft 241 kts 207°
2026-05-04 10:37 43.48004 1.61673 5168 ft 231 kts 222°
2026-05-04 10:39 43.47775 1.51859 3542 ft 209 kts 324°
2026-05-04 10:39 43.48904 1.50692 3478 ft 196 kts 324°
2026-05-04 10:39 43.49974 1.49581 3379 ft 191 kts 324°
2026-05-04 10:40 43.51020 1.48497 3165 ft 185 kts 324°
2026-05-04 10:40 43.52015 1.47466 2922 ft 171 kts 323°
2026-05-04 10:40 43.52939 1.46509 2708 ft 161 kts 324°
2026-05-04 10:40 43.53815 1.45601 2531 ft 152 kts 323°
2026-05-04 10:41 43.54641 1.44745 2310 ft 145 kts 323°
2026-05-04 10:41 43.55446 1.43911 2116 ft 143 kts 323°
2026-05-04 10:41 43.56241 1.43086 1915 ft 143 kts 323°
2026-05-04 10:41 43.57035 1.42263 1736 ft 142 kts 322°
2026-05-04 10:42 43.57821 1.41447 1535 ft 141 kts 323°
2026-05-04 10:42 43.58607 1.40631 1343 ft 141 kts 323°
2026-05-04 10:42 43.59378 1.39834 1202 ft 137 kts 323°
2026-05-04 10:42 43.60147 1.39038 1075 ft 139 kts 322°
2026-05-04 10:43 43.60908 1.38246 827 ft 138 kts 322°